createdAt,value
2022-08-16T00:00:29.126Z,22.50
2022-08-16T00:03:07.586Z,22.40
2022-08-16T00:05:47.984Z,22.40
2022-08-16T00:08:36.120Z,22.30
2022-08-16T00:11:15.444Z,22.30
2022-08-16T00:13:53.010Z,22.20
2022-08-16T00:17:00.957Z,22.20
2022-08-16T00:19:22.360Z,22.30
2022-08-16T00:21:56.047Z,22.30
2022-08-16T00:24:31.381Z,22.30
2022-08-16T00:27:02.940Z,22.20
2022-08-16T00:29:33.265Z,22.20
2022-08-16T00:32:06.043Z,22.20
2022-08-16T00:34:52.520Z,22.20
2022-08-16T00:37:56.282Z,22.20
2022-08-16T00:40:34.143Z,22.10
2022-08-16T00:43:11.760Z,22.10
2022-08-16T00:45:58.190Z,22.10
2022-08-16T00:48:44.078Z,22.00
2022-08-16T00:51:16.113Z,22.00
2022-08-16T00:53:48.924Z,22.00
2022-08-16T00:56:56.862Z,22.00
2022-08-16T00:59:15.184Z,22.00
2022-08-16T01:01:46.651Z,22.00
2022-08-16T01:04:29.219Z,22.10
2022-08-16T01:07:03.155Z,22.00
2022-08-16T01:09:37.389Z,21.90
2022-08-16T01:12:10.631Z,21.80
2022-08-16T01:14:44.529Z,21.70
2022-08-16T01:17:19.827Z,21.70
2022-08-16T01:20:01.137Z,21.70
2022-08-16T01:22:50.081Z,21.70
2022-08-16T01:25:34.076Z,21.60
2022-08-16T01:28:10.120Z,21.50
2022-08-16T01:30:52.521Z,21.50
2022-08-16T01:33:23.547Z,21.40
2022-08-16T01:35:53.800Z,21.40
2022-08-16T01:38:39.177Z,21.40
2022-08-16T01:41:19.345Z,21.30
2022-08-16T01:43:54.203Z,21.30
2022-08-16T01:46:46.736Z,21.30
2022-08-16T01:49:22.376Z,21.10
2022-08-16T01:51:58.496Z,21.10
2022-08-16T01:54:31.077Z,21.10
2022-08-16T01:57:00.364Z,21.20
2022-08-16T01:59:31.039Z,21.30
2022-08-16T02:02:00.070Z,21.40
2022-08-16T02:04:40.094Z,21.40
2022-08-16T02:07:18.463Z,21.30
2022-08-16T02:09:57.044Z,21.20
2022-08-16T02:12:50.216Z,21.20
2022-08-16T02:15:17.958Z,21.20
2022-08-16T02:17:57.424Z,21.20
2022-08-16T02:20:27.874Z,21.20
2022-08-16T02:23:00.261Z,21.10
2022-08-16T02:25:51.702Z,21.10
2022-08-16T02:28:19.296Z,21.20
2022-08-16T02:30:51.624Z,21.20
2022-08-16T02:33:43.814Z,21.10
2022-08-16T02:36:49.777Z,21.10
2022-08-16T02:39:06.509Z,21.10
2022-08-16T02:41:34.347Z,21.00
2022-08-16T02:44:07.721Z,21.00
2022-08-16T02:46:34.995Z,21.10
2022-08-16T02:49:03.289Z,21.00
2022-08-16T02:51:35.960Z,21.00
2022-08-16T02:54:04.192Z,21.10
2022-08-16T02:56:32.767Z,21.00
2022-08-16T02:59:01.013Z,21.10
2022-08-16T03:01:39.845Z,21.20
2022-08-16T03:04:40.978Z,21.20
2022-08-16T03:06:57.872Z,21.20
2022-08-16T03:09:28.528Z,21.20
2022-08-16T03:11:57.335Z,21.20
2022-08-16T03:14:25.774Z,21.20
2022-08-16T03:17:00.321Z,21.20
2022-08-16T03:19:56.484Z,21.20
2022-08-16T03:22:19.143Z,21.10
2022-08-16T03:25:01.135Z,21.10
2022-08-16T03:27:32.884Z,21.00
2022-08-16T03:30:16.348Z,21.10
2022-08-16T03:32:47.887Z,21.10
2022-08-16T03:35:21.694Z,21.10
2022-08-16T03:38:02.620Z,21.10
2022-08-16T03:40:33.997Z,21.10
2022-08-16T03:43:20.103Z,21.10
2022-08-16T03:45:52.653Z,21.10
2022-08-16T03:48:36.903Z,21.10
2022-08-16T03:51:12.199Z,21.10
2022-08-16T03:53:41.536Z,21.10
2022-08-16T03:56:19.484Z,21.10
2022-08-16T03:58:50.651Z,21.10
2022-08-16T04:01:19.772Z,21.10
2022-08-16T04:03:47.060Z,21.00
2022-08-16T04:06:20.670Z,20.90
2022-08-16T04:08:48.201Z,20.90
2022-08-16T04:11:18.465Z,20.90
2022-08-16T04:14:01.277Z,20.90
2022-08-16T04:16:37.850Z,21.00
2022-08-16T04:19:05.478Z,21.00
2022-08-16T04:21:47.145Z,21.10
2022-08-16T04:24:15.017Z,21.00
2022-08-16T04:26:46.346Z,21.00
2022-08-16T04:29:23.552Z,21.00
2022-08-16T04:31:56.557Z,21.00
2022-08-16T04:34:30.788Z,21.10
2022-08-16T04:37:01.066Z,21.10
2022-08-16T04:39:45.818Z,21.10
2022-08-16T04:42:18.924Z,21.10
2022-08-16T04:44:56.059Z,21.10
2022-08-16T04:47:32.987Z,21.10
2022-08-16T04:50:07.803Z,21.00
2022-08-16T04:52:36.226Z,21.00
2022-08-16T04:55:12.035Z,21.00
2022-08-16T04:57:42.189Z,21.00
2022-08-16T05:00:25.269Z,21.00
2022-08-16T05:03:17.163Z,21.00
2022-08-16T05:05:59.518Z,21.00
2022-08-16T05:08:32.494Z,21.10
2022-08-16T05:11:05.216Z,21.00
2022-08-16T05:13:40.627Z,20.90
2022-08-16T05:16:23.219Z,20.90
2022-08-16T05:18:53.525Z,20.80
2022-08-16T05:21:24.846Z,20.90
2022-08-16T05:23:55.604Z,20.90
2022-08-16T05:26:28.275Z,21.00
2022-08-16T05:29:04.489Z,21.10
2022-08-16T05:31:32.420Z,21.00
2022-08-16T05:34:04.298Z,21.10
2022-08-16T05:36:34.209Z,21.10
2022-08-16T05:39:09.982Z,21.10
2022-08-16T05:41:45.248Z,21.20
2022-08-16T05:44:22.390Z,21.20
2022-08-16T05:46:51.702Z,21.30
2022-08-16T05:49:22.606Z,21.40
2022-08-16T05:51:50.829Z,21.30
2022-08-16T05:54:24.989Z,21.30
2022-08-16T05:56:54.327Z,21.40
2022-08-16T05:59:27.527Z,21.50
2022-08-16T06:01:55.365Z,21.50
2022-08-16T06:04:36.232Z,21.60
2022-08-16T06:07:08.198Z,21.80
2022-08-16T06:09:43.707Z,22.00
2022-08-16T06:12:26.269Z,22.10
2022-08-16T06:14:59.197Z,22.30
2022-08-16T06:17:41.699Z,22.50
2022-08-16T06:20:23.217Z,22.60
2022-08-16T06:23:03.309Z,22.80
2022-08-16T06:25:36.666Z,23.00
2022-08-16T06:28:09.790Z,23.10
2022-08-16T06:30:43.357Z,23.30
2022-08-16T06:33:19.716Z,23.60
2022-08-16T06:35:55.054Z,23.70
2022-08-16T06:38:32.459Z,23.80
2022-08-16T06:41:04.143Z,23.90
2022-08-16T06:43:36.186Z,24.10
2022-08-16T06:46:06.525Z,24.30
2022-08-16T06:48:43.122Z,24.40
2022-08-16T06:51:11.001Z,24.60
2022-08-16T06:53:38.518Z,24.80
2022-08-16T06:56:14.738Z,24.90
2022-08-16T06:58:52.285Z,25.00
2022-08-16T07:01:44.830Z,25.30
2022-08-16T07:04:12.023Z,25.50
2022-08-16T07:06:43.240Z,25.80
2022-08-16T07:09:12.484Z,26.10
2022-08-16T07:11:48.272Z,26.30
2022-08-16T07:14:24.198Z,26.70
2022-08-16T07:16:59.447Z,26.80
2022-08-16T07:19:33.747Z,26.80
2022-08-16T07:22:52.435Z,26.90
2022-08-16T07:25:10.098Z,27.10
2022-08-16T07:27:40.601Z,27.30
2022-08-16T07:30:39.101Z,27.40
2022-08-16T07:33:04.573Z,27.70
2022-08-16T07:35:44.242Z,28.00
2022-08-16T07:38:12.030Z,28.30
2022-08-16T07:41:00.638Z,28.70
2022-08-16T07:43:32.129Z,29.00
2022-08-16T07:46:01.468Z,29.20
2022-08-16T07:48:30.576Z,29.20
2022-08-16T07:51:02.482Z,29.40
2022-08-16T07:53:43.626Z,30.00
2022-08-16T07:56:11.373Z,30.40
2022-08-16T07:58:38.626Z,30.70
2022-08-16T08:01:10.477Z,30.60
2022-08-16T08:03:48.243Z,30.60
2022-08-16T08:06:24.934Z,30.60
2022-08-16T08:08:56.971Z,30.60
2022-08-16T08:11:32.644Z,30.60
2022-08-16T08:14:06.637Z,30.90
2022-08-16T08:16:35.690Z,31.00
2022-08-16T08:19:03.665Z,31.50
2022-08-16T08:21:59.894Z,32.20
2022-08-16T08:24:31.599Z,32.40
2022-08-16T08:27:04.303Z,32.90
2022-08-16T08:29:40.680Z,33.20
2022-08-16T08:32:58.863Z,33.00
2022-08-16T08:35:00.262Z,32.90
2022-08-16T08:37:54.704Z,32.70
2022-08-16T08:40:24.698Z,32.60
2022-08-16T08:43:00.836Z,32.30
2022-08-16T08:45:52.876Z,31.90
2022-08-16T08:48:33.725Z,31.70
2022-08-16T08:51:08.969Z,31.40
2022-08-16T08:53:39.816Z,31.70
2022-08-16T08:56:23.573Z,32.30
2022-08-16T08:58:58.860Z,32.50
2022-08-16T09:01:36.724Z,33.10
2022-08-16T09:04:14.865Z,33.50
2022-08-16T09:06:48.432Z,33.50
2022-08-16T09:09:16.803Z,33.80
2022-08-16T09:11:53.813Z,33.90
2022-08-16T09:14:34.505Z,34.40
2022-08-16T09:17:11.788Z,34.50
2022-08-16T09:19:55.099Z,34.20
2022-08-16T09:22:29.514Z,34.30
2022-08-16T09:25:09.878Z,34.30
2022-08-16T09:27:57.369Z,34.80
2022-08-16T09:30:33.353Z,35.00
2022-08-16T09:33:06.754Z,34.70
2022-08-16T09:35:37.313Z,34.90
2022-08-16T09:38:08.466Z,35.20
2022-08-16T09:40:42.769Z,35.10
2022-08-16T09:43:46.403Z,35.20
2022-08-16T09:46:33.364Z,35.50
2022-08-16T09:48:58.235Z,35.80
2022-08-16T09:51:36.536Z,35.80
2022-08-16T09:54:05.940Z,35.80
2022-08-16T09:56:35.363Z,36.10
2022-08-16T09:59:07.872Z,36.20
2022-08-16T10:01:38.572Z,36.00
2022-08-16T10:04:31.243Z,36.10
2022-08-16T10:09:53.707Z,35.90
2022-08-16T10:12:55.762Z,36.00
2022-08-16T10:15:26.029Z,36.10
2022-08-16T10:18:01.442Z,36.40
2022-08-16T10:20:35.362Z,36.30
2022-08-16T10:23:08.420Z,35.80
2022-08-16T10:27:20.518Z,34.90
2022-08-16T10:28:32.349Z,34.20
2022-08-16T10:31:14.506Z,33.40
2022-08-16T10:33:45.326Z,32.90
2022-08-16T10:36:37.911Z,32.20
2022-08-16T10:39:02.944Z,31.60
2022-08-16T10:41:32.838Z,31.00
2022-08-16T10:44:00.255Z,30.60
2022-08-16T10:46:39.843Z,30.20
2022-08-16T10:49:11.846Z,30.10
2022-08-16T10:52:01.388Z,30.10
2022-08-16T10:54:30.650Z,30.10
2022-08-16T10:57:00.629Z,30.40
2022-08-16T10:59:39.147Z,30.70
2022-08-16T11:02:58.304Z,31.10
2022-08-16T11:05:06.369Z,31.50
2022-08-16T11:07:43.552Z,31.80
2022-08-16T11:13:58.147Z,32.30
2022-08-16T11:17:02.116Z,32.60
2022-08-16T11:19:06.303Z,32.90
2022-08-16T11:24:42.359Z,33.80
2022-08-16T11:27:19.673Z,33.90
2022-08-16T11:29:54.898Z,33.90
2022-08-16T11:32:31.818Z,33.70
2022-08-16T11:35:13.873Z,33.70
2022-08-16T11:38:47.038Z,33.60
2022-08-16T11:40:52.246Z,33.50
2022-08-16T11:43:30.551Z,33.40
2022-08-16T11:46:27.869Z,33.20
2022-08-16T11:48:48.408Z,33.00
2022-08-16T11:51:16.188Z,33.00
2022-08-16T11:53:43.604Z,33.40
2022-08-16T11:56:14.998Z,33.70
2022-08-16T11:58:44.761Z,33.90
2022-08-16T12:01:19.845Z,34.00
2022-08-16T12:03:59.289Z,34.10
2022-08-16T12:06:30.610Z,34.00
2022-08-16T12:09:02.115Z,34.00
2022-08-16T12:11:33.453Z,34.50
2022-08-16T12:14:04.334Z,34.60
2022-08-16T12:16:34.314Z,35.10
2022-08-16T12:19:07.413Z,35.10
2022-08-16T12:21:58.665Z,35.20
2022-08-16T12:24:27.502Z,34.90
2022-08-16T12:26:55.519Z,34.70
2022-08-16T12:29:23.183Z,34.40
2022-08-16T12:32:01.151Z,34.40
2022-08-16T12:34:50.730Z,34.40
2022-08-16T12:37:21.592Z,34.60
2022-08-16T12:39:56.873Z,34.70
2022-08-16T12:42:34.788Z,34.80
2022-08-16T12:45:06.750Z,34.70
2022-08-16T12:48:04.857Z,34.60
2022-08-16T12:50:40.011Z,34.50
2022-08-16T12:53:09.944Z,34.30
2022-08-16T12:55:41.885Z,34.00
2022-08-16T12:58:48.762Z,33.80
2022-08-16T13:01:04.028Z,33.90
2022-08-16T13:03:40.219Z,33.90
2022-08-16T13:06:08.769Z,33.90
2022-08-16T13:08:36.522Z,33.80
2022-08-16T13:11:05.083Z,33.70
2022-08-16T13:13:35.659Z,33.70
2022-08-16T13:16:15.361Z,33.70
2022-08-16T13:18:54.607Z,33.70
2022-08-16T13:21:24.170Z,33.60
2022-08-16T13:23:55.367Z,33.40
2022-08-16T13:26:26.413Z,33.30
2022-08-16T13:28:58.677Z,33.20
2022-08-16T13:31:26.842Z,33.20
2022-08-16T13:33:58.873Z,33.30
2022-08-16T13:36:48.103Z,33.10
2022-08-16T13:39:14.399Z,32.90
2022-08-16T13:41:42.293Z,32.90
2022-08-16T13:44:10.163Z,32.80
2022-08-16T13:46:38.789Z,32.70
2022-08-16T13:49:06.928Z,32.60
2022-08-16T13:51:34.776Z,32.80
2022-08-16T13:54:08.261Z,33.00
2022-08-16T13:56:39.647Z,33.10
2022-08-16T13:59:16.578Z,33.10
2022-08-16T14:01:55.004Z,33.10
2022-08-16T14:04:40.265Z,33.10
2022-08-16T14:07:24.293Z,33.10
2022-08-16T14:09:55.348Z,32.90
2022-08-16T14:12:30.019Z,32.80
2022-08-16T14:15:01.035Z,32.90
2022-08-16T14:17:31.234Z,33.00
2022-08-16T14:20:22.205Z,33.10
2022-08-16T14:22:54.499Z,33.10
2022-08-16T14:25:25.232Z,32.80
2022-08-16T14:27:55.059Z,32.60
2022-08-16T14:30:26.134Z,32.50
2022-08-16T14:32:54.135Z,32.30
2022-08-16T14:35:29.372Z,32.10
2022-08-16T14:38:05.132Z,31.90
2022-08-16T14:40:33.100Z,31.70
2022-08-16T14:43:06.915Z,31.60
2022-08-16T14:45:35.415Z,31.50
2022-08-16T14:48:03.087Z,31.40
2022-08-16T14:50:34.596Z,31.30
2022-08-16T14:53:06.040Z,31.30
2022-08-16T14:55:36.491Z,31.30
2022-08-16T14:58:05.385Z,31.40
2022-08-16T15:00:36.476Z,31.50
2022-08-16T15:03:10.576Z,31.60
2022-08-16T15:05:41.784Z,31.70
2022-08-16T15:08:10.890Z,31.60
2022-08-16T15:10:44.786Z,31.80
2022-08-16T15:13:19.009Z,31.90
2022-08-16T15:15:51.474Z,31.90
2022-08-16T15:18:28.026Z,31.90
2022-08-16T15:21:02.629Z,31.70
2022-08-16T15:23:33.744Z,31.60
2022-08-16T15:26:03.994Z,31.50
2022-08-16T15:28:37.175Z,31.60
2022-08-16T15:31:09.208Z,31.50
2022-08-16T15:33:45.417Z,31.60
2022-08-16T15:36:20.414Z,31.60
2022-08-16T15:39:02.763Z,31.60
2022-08-16T15:41:47.820Z,31.70
2022-08-16T15:44:22.994Z,31.70
2022-08-16T15:46:58.638Z,31.70
2022-08-16T15:49:38.095Z,31.70
2022-08-16T15:52:16.539Z,31.50
2022-08-16T15:54:53.332Z,31.30
2022-08-16T15:57:25.398Z,31.30
2022-08-16T15:59:57.781Z,31.20
2022-08-16T16:02:32.104Z,31.20
2022-08-16T16:05:06.696Z,31.20
2022-08-16T16:07:35.995Z,31.30
2022-08-16T16:10:07.996Z,31.30
2022-08-16T16:12:51.114Z,31.20
2022-08-16T16:15:29.460Z,31.30
2022-08-16T16:18:09.588Z,31.30
2022-08-16T16:20:43.883Z,31.30
2022-08-16T16:23:13.810Z,31.30
2022-08-16T16:25:44.716Z,31.10
2022-08-16T16:29:06.428Z,31.10
2022-08-16T16:31:09.684Z,30.90
2022-08-16T16:33:41.982Z,30.80
2022-08-16T16:36:16.247Z,30.90
2022-08-16T16:38:49.050Z,31.00
2022-08-16T16:41:22.722Z,31.10
2022-08-16T16:43:54.730Z,31.10
2022-08-16T16:46:42.020Z,31.00
2022-08-16T16:49:16.851Z,30.80
2022-08-16T16:51:44.623Z,30.90
2022-08-16T16:54:27.679Z,30.80
2022-08-16T16:56:58.130Z,30.50
2022-08-16T16:59:27.931Z,30.60
2022-08-16T17:02:41.487Z,30.60
2022-08-16T17:04:48.231Z,30.70
2022-08-16T17:07:16.366Z,30.70
2022-08-16T17:09:46.824Z,30.70
2022-08-16T17:12:24.974Z,30.70
2022-08-16T17:14:56.445Z,30.70
2022-08-16T17:17:26.770Z,30.70
2022-08-16T17:19:59.451Z,30.70
2022-08-16T17:22:33.002Z,30.70
2022-08-16T17:25:01.447Z,30.70
2022-08-16T17:27:50.679Z,30.70
2022-08-16T17:30:22.112Z,30.60
2022-08-16T17:33:01.161Z,30.50
2022-08-16T17:35:55.892Z,30.50
2022-08-16T17:38:32.876Z,30.30
2022-08-16T17:41:07.939Z,30.10
2022-08-16T17:43:44.302Z,30.10
2022-08-16T17:46:51.557Z,30.10
2022-08-16T17:49:03.176Z,30.20
2022-08-16T17:51:31.027Z,30.30
2022-08-16T17:54:03.248Z,30.30
2022-08-16T17:56:31.103Z,30.20
2022-08-16T17:59:01.926Z,30.00
2022-08-16T18:01:29.790Z,29.50
2022-08-16T18:04:09.164Z,29.50
2022-08-16T18:06:38.633Z,29.50
2022-08-16T18:09:10.354Z,29.60
2022-08-16T18:11:42.956Z,29.60
2022-08-16T18:14:12.730Z,29.50
2022-08-16T18:16:41.264Z,29.50
2022-08-16T18:19:10.468Z,29.60
2022-08-16T18:21:56.789Z,29.60
2022-08-16T18:24:26.421Z,29.60
2022-08-16T18:26:54.290Z,29.50
2022-08-16T18:29:24.528Z,29.50
2022-08-16T18:31:51.833Z,29.40
2022-08-16T18:34:22.259Z,29.40
2022-08-16T18:36:52.072Z,29.30
2022-08-16T18:39:21.541Z,29.30
2022-08-16T18:41:56.397Z,29.20
2022-08-16T18:44:29.228Z,29.20
2022-08-16T18:47:02.370Z,29.20
2022-08-16T18:49:29.638Z,29.10
2022-08-16T18:51:59.157Z,29.00
2022-08-16T18:54:28.237Z,29.00
2022-08-16T18:56:57.908Z,28.90
2022-08-16T18:59:33.147Z,28.70
2022-08-16T19:02:05.648Z,28.70
2022-08-16T19:04:47.573Z,28.70
2022-08-16T19:07:31.485Z,28.60
2022-08-16T19:10:05.916Z,28.50
2022-08-16T19:12:37.930Z,28.20
2022-08-16T19:15:16.249Z,28.20
2022-08-16T19:17:44.918Z,28.10
2022-08-16T19:20:14.519Z,28.00
2022-08-16T19:25:46.631Z,27.70
2022-08-16T19:28:50.709Z,27.70
2022-08-16T19:31:27.590Z,27.60
2022-08-16T19:33:56.716Z,27.60
2022-08-16T19:36:36.122Z,27.60
2022-08-16T19:39:15.974Z,27.50
2022-08-16T19:42:39.921Z,27.50
2022-08-16T19:44:43.159Z,27.50
2022-08-16T19:47:11.743Z,27.30
2022-08-16T19:49:42.213Z,27.20
2022-08-16T19:52:29.526Z,27.10
2022-08-16T19:55:04.793Z,27.00
2022-08-16T19:57:45.396Z,27.00
2022-08-16T20:00:15.727Z,27.00
2022-08-16T20:02:51.122Z,26.90
2022-08-16T20:05:24.145Z,26.80
2022-08-16T20:07:51.627Z,26.70
2022-08-16T20:10:24.875Z,26.70
2022-08-16T20:13:02.119Z,26.60
2022-08-16T20:15:31.521Z,26.50
2022-08-16T20:17:58.961Z,26.30
2022-08-16T20:20:28.434Z,26.30
2022-08-16T20:22:57.526Z,26.20
2022-08-16T20:25:31.670Z,26.20
2022-08-16T20:28:00.931Z,26.00
2022-08-16T20:30:28.540Z,25.80
2022-08-16T20:32:56.120Z,25.80
2022-08-16T20:35:27.411Z,25.70
2022-08-16T20:37:55.946Z,25.60
2022-08-16T20:40:34.757Z,25.60
2022-08-16T20:43:16.490Z,25.60
2022-08-16T20:45:50.118Z,25.70
2022-08-16T20:48:19.902Z,25.70
2022-08-16T20:50:47.253Z,25.70
2022-08-16T20:53:16.967Z,25.70
2022-08-16T20:55:46.772Z,25.50
2022-08-16T20:58:19.505Z,25.50
2022-08-16T21:00:49.771Z,25.50
2022-08-16T21:03:19.667Z,25.40
2022-08-16T21:05:46.944Z,25.30
2022-08-16T21:08:51.618Z,25.20
2022-08-16T21:11:04.446Z,25.20
2022-08-16T21:13:32.691Z,25.30
2022-08-16T21:16:02.488Z,25.20
2022-08-16T21:18:30.017Z,25.10
2022-08-16T21:20:57.288Z,25.10
2022-08-16T21:23:25.483Z,25.10
2022-08-16T21:25:59.020Z,25.10
2022-08-16T21:28:39.995Z,25.10
2022-08-16T21:31:15.471Z,25.10
2022-08-16T21:33:44.436Z,25.00
2022-08-16T21:36:14.726Z,24.90
2022-08-16T21:38:44.427Z,24.80
2022-08-16T21:41:12.868Z,24.70
2022-08-16T21:43:45.692Z,24.70
2022-08-16T21:46:13.369Z,24.70
2022-08-16T21:48:40.928Z,24.70
2022-08-16T21:51:12.202Z,24.70
2022-08-16T21:53:41.538Z,24.70
2022-08-16T21:56:12.570Z,24.70
2022-08-16T21:58:52.750Z,24.70
2022-08-16T22:01:25.343Z,24.60
2022-08-16T22:04:35.661Z,24.50
2022-08-16T22:06:44.146Z,24.40
2022-08-16T22:09:15.253Z,24.40
2022-08-16T22:11:44.127Z,24.50
2022-08-16T22:14:11.556Z,24.50
2022-08-16T22:16:41.721Z,24.50
2022-08-16T22:19:09.873Z,24.50
2022-08-16T22:21:37.706Z,24.50
2022-08-16T22:24:05.162Z,24.50
2022-08-16T22:26:39.618Z,24.50
2022-08-16T22:29:12.835Z,24.50
2022-08-16T22:31:40.868Z,24.50
2022-08-16T22:34:09.007Z,24.50
2022-08-16T22:36:37.244Z,24.40
2022-08-16T22:39:08.017Z,24.50
2022-08-16T22:41:38.962Z,24.50
2022-08-16T22:44:09.267Z,24.40
2022-08-16T22:46:39.058Z,24.40
2022-08-16T22:49:07.367Z,24.40
2022-08-16T22:51:38.174Z,24.40
2022-08-16T22:54:42.518Z,24.40
2022-08-16T22:56:57.629Z,24.40
2022-08-16T22:59:25.246Z,24.40
2022-08-16T23:01:54.770Z,24.30
2022-08-16T23:04:25.164Z,24.40
2022-08-16T23:06:52.657Z,24.30
2022-08-16T23:09:20.303Z,24.30
2022-08-16T23:11:47.705Z,24.20
2022-08-16T23:14:18.049Z,24.20
2022-08-16T23:16:47.183Z,24.10
2022-08-16T23:19:16.134Z,24.10
2022-08-16T23:21:46.920Z,24.10
2022-08-16T23:24:19.338Z,24.20
2022-08-16T23:26:49.805Z,24.30
2022-08-16T23:29:24.668Z,24.30
2022-08-16T23:32:03.007Z,24.40
2022-08-16T23:34:32.602Z,24.50
2022-08-16T23:37:02.350Z,24.50
2022-08-16T23:39:31.993Z,24.40
2022-08-16T23:42:01.968Z,24.40
2022-08-16T23:44:57.719Z,24.40
2022-08-16T23:47:16.386Z,24.40
2022-08-16T23:50:00.199Z,24.40
2022-08-16T23:52:53.084Z,24.30
2022-08-16T23:55:17.758Z,24.30
2022-08-16T23:57:46.180Z,24.20
